Cherrytown, New York
Current Conditions -  °F | °C
As of 2:54 AM on Wednesday 26 Nov 2014 (Local Time) from KMGJ Reporting Station
Clear Clear  
Wind Chill: 37°   Ceiling: Unl
Heat Index: 40°   Visibility: 10mi
Dew Point: 29°   Wind: 5mph
Humidity: 65%   Direction: 340°NNW
Pressure: 30.18"   Gusts: NA
Location:  41.7943°N, 74.3146°W
Report Text: KMGJ 260754Z AUTO 34004KT 10SM CLR 04/M02 A3018 RMK AO2 SLP221 T00441017 TSNO
Loading
Personal Weather Stations






























Interactive Weather Map New forecast layout! Learn more

10-Day Weather Forecast

Advertisements
Track Severe Weather on mobile